Time;durP1;ratioP1;P1;durP2;ratioP2;P2;SDS_P1;SDS_P2;PMS_P1;PMS_P2;Temp;Humidity;BMP_temperature;BMP_pressure;BME280_temperature;BME280_humidity;BME280_pressure;Samples;Min_cycle;Max_cycle;Signal;HPM_P1;HPM_P2
2022/03/14 00:00:10;;;;;;;51.63;23.40;;;-1.90;99.90;;;;;;5291019;28;20054;-78
2022/03/14 00:02:42;;;;;;;40.72;21.55;;;-2.20;99.90;;;;;;5290825;28;20417;-78
2022/03/14 00:05:15;;;;;;;44.47;21.95;;;-2.20;99.90;;;;;;5290364;28;20396;-79
2022/03/14 00:07:47;;;;;;;41.10;20.73;;;-2.00;99.90;;;;;;5291926;28;20509;-78
2022/03/14 00:10:18;;;;;;;41.92;19.88;;;-2.00;99.90;;;;;;5290647;28;20024;-90
2022/03/14 00:12:49;;;;;;;35.05;18.10;;;-2.10;99.90;;;;;;5291797;28;20080;-78
2022/03/14 00:15:20;;;;;;;40.17;20.35;;;-2.00;99.90;;;;;;5291577;28;20023;-78
2022/03/14 00:17:52;;;;;;;35.42;17.42;;;-1.90;99.90;;;;;;5291605;28;20534;-78
2022/03/14 00:20:24;;;;;;;30.30;15.45;;;-2.00;99.90;;;;;;5291659;28;20911;-78
2022/03/14 00:22:58;;;;;;;31.52;16.08;;;-2.20;99.90;;;;;;5291599;28;20024;-78
2022/03/14 00:25:30;;;;;;;30.85;15.65;;;-2.10;99.90;;;;;;5291534;28;20371;-78
2022/03/14 00:28:01;;;;;;;29.58;15.77;;;-1.90;99.90;;;;;;5291569;27;20016;-78
2022/03/14 00:30:32;;;;;;;28.92;14.48;;;-2.10;99.90;;;;;;5291514;28;20374;-79
2022/03/14 00:33:02;;;;;;;28.20;15.70;;;-2.00;99.90;;;;;;5291380;28;20022;-79
2022/03/14 00:35:33;;;;;;;27.27;14.40;;;-2.10;99.90;;;;;;5291022;28;20101;-78
2022/03/14 00:38:04;;;;;;;28.08;14.63;;;-2.10;99.90;;;;;;5291222;28;20494;-79
2022/03/14 00:40:35;;;;;;;28.08;14.02;;;-2.00;99.90;;;;;;5291192;28;20032;-79
2022/03/14 00:43:07;;;;;;;28.00;14.82;;;-1.80;99.90;;;;;;5291252;28;20020;-79
2022/03/14 00:45:38;;;;;;;29.95;16.27;;;-1.90;99.90;;;;;;5291109;28;20031;-87
2022/03/14 00:48:09;;;;;;;29.20;16.15;;;-1.90;99.90;;;;;;5291138;27;20024;-78
2022/03/14 00:50:40;;;;;;;29.23;15.75;;;-1.80;99.90;;;;;;5291072;28;20059;-79
2022/03/14 00:53:11;;;;;;;30.73;15.60;;;-2.00;99.90;;;;;;5291150;28;20434;-79
2022/03/14 00:55:42;;;;;;;28.30;15.02;;;-2.10;99.90;;;;;;5290735;28;20043;-79
2022/03/14 00:58:13;;;;;;;29.25;14.88;;;-1.90;99.90;;;;;;5290849;28;20024;-79
2022/03/14 01:00:44;;;;;;;30.67;15.93;;;-1.90;99.90;;;;;;5290800;28;20016;-79
2022/03/14 01:03:15;;;;;;;26.13;14.63;;;-2.20;99.90;;;;;;5290795;28;20028;-79
2022/03/14 01:05:46;;;;;;;26.92;14.00;;;-2.10;99.90;;;;;;5289049;28;20494;-79
2022/03/14 01:08:16;;;;;;;23.02;13.48;;;-2.00;99.90;;;;;;5290801;28;20046;-86
2022/03/14 01:10:48;;;;;;;21.17;12.02;;;-2.10;99.90;;;;;;5289402;28;20374;-79
2022/03/14 01:13:19;;;;;;;20.00;10.68;;;-2.10;99.90;;;;;;5290603;28;20504;-79
2022/03/14 01:15:49;;;;;;;21.02;12.13;;;-2.00;99.90;;;;;;5289103;28;20055;-79
2022/03/14 01:18:20;;;;;;;21.15;11.68;;;-2.10;99.90;;;;;;5289108;28;20042;-79
2022/03/14 01:20:51;;;;;;;28.88;14.30;;;-2.00;99.90;;;;;;5290549;28;20086;-78
2022/03/14 01:23:22;;;;;;;28.50;14.43;;;-2.10;99.90;;;;;;5290453;28;20024;-78
2022/03/14 01:25:53;;;;;;;28.48;15.52;;;-2.10;99.90;;;;;;5289922;28;20012;-78
2022/03/14 01:28:24;;;;;;;27.95;14.32;;;-2.20;99.90;;;;;;5290308;28;20027;-79
2022/03/14 01:30:55;;;;;;;35.33;18.45;;;-2.10;99.90;;;;;;5290365;28;20249;-78
2022/03/14 01:33:26;;;;;;;21.50;12.25;;;-2.30;99.90;;;;;;5289026;28;20016;-79
2022/03/14 01:35:57;;;;;;;27.83;15.60;;;-2.10;99.90;;;;;;5289908;28;20043;-79
2022/03/14 01:38:28;;;;;;;25.98;14.60;;;-2.00;99.90;;;;;;5290119;28;20454;-84
2022/03/14 01:40:59;;;;;;;28.65;15.23;;;-2.20;99.90;;;;;;5290149;27;20036;-78
2022/03/14 01:43:30;;;;;;;32.20;16.40;;;-2.10;99.90;;;;;;5290097;28;20058;-78
2022/03/14 01:46:01;;;;;;;23.70;13.07;;;-2.10;99.90;;;;;;5288752;28;20420;-79
2022/03/14 01:48:32;;;;;;;25.45;13.00;;;-2.20;99.90;;;;;;5288838;28;20020;-78
2022/03/14 01:51:03;;;;;;;24.10;12.73;;;-2.10;99.90;;;;;;5290062;28;20481;-78
2022/03/14 01:53:35;;;;;;;19.75;11.05;;;-2.30;99.90;;;;;;5289973;28;20023;-78
2022/03/14 01:56:07;;;;;;;23.25;11.95;;;-2.10;99.90;;;;;;5289804;28;20493;-78
2022/03/14 01:58:38;;;;;;;24.38;12.68;;;-1.90;99.90;;;;;;5289840;28;20462;-78
2022/03/14 02:01:09;;;;;;;23.42;12.73;;;-2.30;99.90;;;;;;5289998;28;20055;-82
2022/03/14 02:03:40;;;;;;;24.63;11.80;;;-2.00;99.90;;;;;;5289908;28;20051;-78
2022/03/14 02:06:12;;;;;;;24.50;13.60;;;-2.10;99.90;;;;;;5289413;28;20064;-79
2022/03/14 02:08:42;;;;;;;22.92;13.82;;;-2.10;99.90;;;;;;5289899;28;20118;-78
2022/03/14 02:11:13;;;;;;;23.75;13.50;;;-2.10;99.90;;;;;;5289888;28;20099;-78
2022/03/14 02:13:44;;;;;;;23.42;11.98;;;-2.10;99.90;;;;;;5288523;28;20057;-78
2022/03/14 02:16:15;;;;;;;25.52;13.32;;;-2.00;99.90;;;;;;5289683;28;20063;-77
2022/03/14 02:18:46;;;;;;;25.58;14.50;;;-1.90;99.90;;;;;;5288418;28;20020;-78
2022/03/14 02:21:17;;;;;;;26.25;15.93;;;-2.00;99.90;;;;;;5288508;28;20023;-84
2022/03/14 02:23:48;;;;;;;28.70;14.82;;;-2.10;99.90;;;;;;5289743;28;20082;-78
2022/03/14 02:26:20;;;;;;;27.42;15.20;;;-2.00;99.90;;;;;;5289723;28;20424;-78
2022/03/14 02:28:50;;;;;;;30.20;14.73;;;-2.30;99.90;;;;;;5289610;28;20375;-77
2022/03/14 02:31:23;;;;;;;30.60;15.27;;;-2.20;99.90;;;;;;5288386;28;20016;-77
2022/03/14 02:33:54;;;;;;;26.33;15.40;;;-2.30;99.90;;;;;;5289585;28;20383;-77
2022/03/14 02:36:24;;;;;;;31.55;16.27;;;-2.20;99.90;;;;;;5289223;28;20035;-78
2022/03/14 02:38:55;;;;;;;30.08;17.45;;;-2.30;99.90;;;;;;5291541;28;20027;-77
2022/03/14 02:41:26;;;;;;;31.85;18.00;;;-2.20;99.90;;;;;;5293610;28;20062;-78
2022/03/14 02:43:57;;;;;;;24.27;15.18;;;-2.00;99.90;;;;;;5293806;28;20016;-77
2022/03/14 02:46:29;;;;;;;22.90;13.60;;;-1.90;99.90;;;;;;5293457;28;20157;-85
2022/03/14 02:49:00;;;;;;;19.80;11.32;;;-2.10;99.90;;;;;;5292232;28;20054;-77
2022/03/14 02:51:34;;;;;;;24.63;15.13;;;-2.10;99.90;;;;;;5293538;28;20064;-77
2022/03/14 02:54:08;;;;;;;27.63;15.88;;;-2.30;99.90;;;;;;5293478;28;20015;-77
2022/03/14 02:56:40;;;;;;;26.45;13.95;;;-2.00;99.90;;;;;;5291919;28;20470;-78
2022/03/14 02:59:11;;;;;;;19.45;10.88;;;-2.10;99.90;;;;;;5293362;28;20019;-77
2022/03/14 03:01:42;;;;;;;21.15;11.60;;;-2.20;99.90;;;;;;5291994;28;20459;-77
2022/03/14 03:04:12;;;;;;;24.52;13.95;;;-2.30;99.90;;;;;;5293229;28;20026;-77
2022/03/14 03:06:45;;;;;;;26.40;15.13;;;-2.20;99.90;;;;;;5292670;27;20053;-77
2022/03/14 03:09:16;;;;;;;26.35;14.95;;;-2.20;99.90;;;;;;5291959;28;20020;-77
2022/03/14 03:11:47;;;;;;;28.25;15.77;;;-2.00;99.90;;;;;;5293217;28;20523;-78
2022/03/14 03:14:19;;;;;;;38.17;16.27;;;-2.20;99.90;;;;;;5293079;28;20122;-77
2022/03/14 03:16:50;;;;;;;25.33;14.30;;;-2.00;99.90;;;;;;5292917;28;20359;-77
2022/03/14 03:19:21;;;;;;;25.80;14.80;;;-1.90;99.90;;;;;;5292932;28;20012;-77
2022/03/14 03:21:51;;;;;;;26.60;16.10;;;-2.10;99.90;;;;;;5292844;28;20495;-77
2022/03/14 03:24:22;;;;;;;27.60;15.60;;;-2.10;99.90;;;;;;5292716;28;20466;-77
2022/03/14 03:26:53;;;;;;;25.85;15.98;;;-2.10;99.90;;;;;;5292849;28;20024;-77
2022/03/14 03:29:25;;;;;;;27.80;15.95;;;-2.10;99.90;;;;;;5292756;28;20428;-77
2022/03/14 03:31:56;;;;;;;30.05;15.73;;;-2.10;99.90;;;;;;5292778;28;20467;-77
2022/03/14 03:34:27;;;;;;;28.77;16.02;;;-2.30;99.90;;;;;;5292600;28;20033;-77
2022/03/14 03:36:57;;;;;;;28.25;17.02;;;-2.10;99.90;;;;;;5290993;28;20071;-77
2022/03/14 03:39:30;;;;;;;30.38;17.05;;;-2.10;99.90;;;;;;5274335;28;20031;-78
2022/03/14 03:42:01;;;;;;;32.65;17.63;;;-2.00;99.90;;;;;;5292575;28;20063;-77
2022/03/14 03:44:32;;;;;;;36.55;17.50;;;-2.20;99.90;;;;;;5292519;28;20434;-77
2022/03/14 03:47:04;;;;;;;31.67;17.52;;;-2.30;99.90;;;;;;5292334;28;20035;-77
2022/03/14 03:49:35;;;;;;;27.33;15.85;;;-2.20;99.90;;;;;;5290763;28;20031;-77
2022/03/14 03:52:07;;;;;;;30.17;16.70;;;-2.30;99.90;;;;;;5292316;27;20051;-77
2022/03/14 03:54:38;;;;;;;25.77;14.77;;;-2.10;99.90;;;;;;5292293;28;20034;-77
2022/03/14 03:57:09;;;;;;;24.75;14.75;;;-2.20;99.90;;;;;;5291957;28;20040;-77
2022/03/14 03:59:40;;;;;;;25.02;14.52;;;-2.20;99.90;;;;;;5292239;28;20024;-77
2022/03/14 04:02:11;;;;;;;27.00;14.65;;;-2.30;99.90;;;;;;5292157;28;20023;-77
2022/03/14 04:04:43;;;;;;;28.73;15.77;;;-2.30;99.90;;;;;;5291817;28;20049;-77
2022/03/14 04:07:18;;;;;;;26.77;15.13;;;-2.20;99.90;;;;;;5291768;27;20121;-77
2022/03/14 04:09:55;;;;;;;28.67;16.00;;;-2.00;99.90;;;;;;5291885;28;20035;-78
2022/03/14 04:12:27;;;;;;;29.33;16.48;;;-2.10;99.90;;;;;;5291919;28;20019;-77
2022/03/14 04:14:58;;;;;;;32.13;17.90;;;-2.30;99.90;;;;;;5291731;28;20081;-77
2022/03/14 04:17:29;;;;;;;29.88;17.75;;;-2.10;99.90;;;;;;5291605;28;20039;-77
2022/03/14 04:20:00;;;;;;;29.10;17.13;;;-2.50;99.90;;;;;;5291816;28;20027;-77
2022/03/14 04:22:32;;;;;;;27.60;16.45;;;-2.20;99.90;;;;;;5291771;28;20378;-77
2022/03/14 04:25:04;;;;;;;23.90;15.05;;;-2.30;99.90;;;;;;5291578;28;20110;-77
2022/03/14 04:27:35;;;;;;;24.38;14.60;;;-2.20;99.90;;;;;;5291480;28;20107;-77
2022/03/14 04:30:06;;;;;;;28.15;16.95;;;-2.10;99.90;;;;;;5291571;28;20114;-77
2022/03/14 04:32:37;;;;;;;29.70;16.60;;;-2.00;99.90;;;;;;5291451;28;20019;-77
2022/03/14 04:35:08;;;;;;;30.35;15.98;;;-2.20;99.90;;;;;;5291170;28;20390;-77
2022/03/14 04:37:40;;;;;;;28.80;17.20;;;-2.30;99.90;;;;;;5291214;28;20031;-81
2022/03/14 04:40:12;;;;;;;29.88;17.15;;;-2.40;99.90;;;;;;5291478;28;20019;-77
2022/03/14 04:42:43;;;;;;;27.70;17.45;;;-2.20;99.90;;;;;;5291247;28;20040;-77
2022/03/14 04:45:14;;;;;;;26.38;15.93;;;-2.20;99.90;;;;;;5291230;28;20534;-77
2022/03/14 04:47:45;;;;;;;26.63;15.95;;;-2.10;99.90;;;;;;5291191;28;20032;-77
2022/03/14 04:50:16;;;;;;;30.23;16.98;;;-1.90;99.90;;;;;;5291047;28;20027;-78
2022/03/14 04:52:47;;;;;;;29.40;17.60;;;-1.90;99.90;;;;;;5291037;28;20027;-77
2022/03/14 04:55:18;;;;;;;25.98;15.43;;;-2.10;99.90;;;;;;5289795;28;20498;-77
2022/03/14 04:57:49;;;;;;;25.60;14.70;;;-2.10;99.90;;;;;;5289603;28;20036;-77
2022/03/14 05:00:20;;;;;;;27.58;15.85;;;-1.80;99.90;;;;;;5290668;28;20027;-77
2022/03/14 05:02:51;;;;;;;30.92;16.52;;;-1.90;99.90;;;;;;5290492;28;20024;-77
2022/03/14 05:05:21;;;;;;;25.98;15.98;;;-1.90;99.90;;;;;;5290395;28;20039;-77
2022/03/14 05:07:52;;;;;;;29.50;16.20;;;-1.80;99.90;;;;;;5289552;28;20352;-78
2022/03/14 05:10:23;;;;;;;30.35;16.65;;;-1.80;99.90;;;;;;5290695;28;20110;-77
2022/03/14 05:12:54;;;;;;;29.83;17.08;;;-1.80;99.90;;;;;;5290405;28;20050;-77
2022/03/14 05:15:25;;;;;;;32.20;17.13;;;-1.70;99.90;;;;;;5289290;28;20020;-77
2022/03/14 05:17:57;;;;;;;31.10;17.73;;;-1.60;99.90;;;;;;5289081;28;20047;-78
2022/03/14 05:20:28;;;;;;;33.08;19.00;;;-1.50;99.90;;;;;;5290599;28;20047;-77
2022/03/14 05:22:59;;;;;;;45.08;23.85;;;-1.50;99.90;;;;;;5290516;28;20106;-78
2022/03/14 05:25:30;;;;;;;47.63;22.65;;;-1.40;99.90;;;;;;5290398;28;20098;-78
2022/03/14 05:28:01;;;;;;;34.20;18.35;;;-1.50;99.90;;;;;;5290370;28;20027;-77
2022/03/14 05:30:32;;;;;;;33.20;17.38;;;-1.50;99.90;;;;;;5289225;28;20374;-77
2022/03/14 05:33:03;;;;;;;27.35;16.00;;;-1.40;99.90;;;;;;5289075;28;20053;-77
2022/03/14 05:35:33;;;;;;;26.17;15.88;;;-1.30;99.90;;;;;;5290112;28;20023;-77
2022/03/14 05:38:04;;;;;;;24.92;15.25;;;-1.30;99.90;;;;;;5290108;28;20035;-77
2022/03/14 05:40:35;;;;;;;27.92;15.82;;;-0.90;99.90;;;;;;5290289;28;20023;-78
2022/03/14 05:43:08;;;;;;;29.60;17.02;;;-0.80;99.90;;;;;;5288635;28;20073;-78
2022/03/14 05:45:39;;;;;;;27.25;16.42;;;-0.80;99.90;;;;;;5289989;28;20088;-82
2022/03/14 05:48:10;;;;;;;33.78;17.60;;;-0.80;99.90;;;;;;5290022;28;20089;-78
2022/03/14 05:50:40;;;;;;;28.83;17.02;;;-0.80;99.90;;;;;;5289926;28;20047;-77
2022/03/14 05:53:12;;;;;;;32.10;17.02;;;-0.70;99.90;;;;;;5288718;28;20024;-78
2022/03/14 05:55:43;;;;;;;32.38;18.98;;;-0.50;99.90;;;;;;5289937;28;20020;-77
2022/03/14 05:58:14;;;;;;;32.90;19.02;;;-0.50;99.90;;;;;;5288647;28;20471;-78
2022/03/14 06:00:45;;;;;;;34.03;18.20;;;-0.40;99.90;;;;;;5288610;28;20092;-77
2022/03/14 06:03:16;;;;;;;32.63;18.42;;;0.30;99.90;;;;;;5289936;28;20051;-78
2022/03/14 06:05:48;;;;;;;33.58;18.73;;;0.00;99.90;;;;;;5289470;28;20043;-77
2022/03/14 06:08:19;;;;;;;31.30;18.65;;;-0.40;99.90;;;;;;5289834;28;20429;-78
2022/03/14 06:10:50;;;;;;;39.00;20.00;;;-0.20;99.90;;;;;;5289766;28;20084;-78
2022/03/14 06:13:21;;;;;;;46.45;24.08;;;0.00;99.90;;;;;;5292667;28;20426;-77
2022/03/14 06:15:52;;;;;;;65.50;33.20;;;0.10;99.90;;;;;;5293975;28;20050;-78
2022/03/14 06:18:23;;;;;;;42.63;22.58;;;0.20;99.90;;;;;;5294077;28;20023;-78
2022/03/14 06:20:54;;;;;;;38.08;18.92;;;0.30;99.90;;;;;;5294093;28;20517;-78
2022/03/14 06:23:24;;;;;;;31.58;18.00;;;0.00;99.90;;;;;;5294105;28;20023;-78
2022/03/14 06:25:56;;;;;;;33.35;15.98;;;0.20;99.90;;;;;;5292631;28;20031;-78
2022/03/14 06:28:27;;;;;;;29.50;15.95;;;0.50;99.90;;;;;;5293943;28;20115;-78
2022/03/14 06:30:58;;;;;;;31.40;18.65;;;0.40;99.90;;;;;;5293853;28;20520;-78
2022/03/14 06:33:29;;;;;;;27.20;16.55;;;0.80;99.90;;;;;;5292545;28;20599;-78
2022/03/14 06:36:00;;;;;;;38.08;21.40;;;0.80;99.90;;;;;;5293467;28;20474;-78
2022/03/14 06:38:32;;;;;;;36.08;20.80;;;0.70;99.90;;;;;;5293729;28;20462;-79
2022/03/14 06:41:04;;;;;;;35.58;20.30;;;1.00;99.90;;;;;;5293666;28;20020;-78
2022/03/14 06:43:35;;;;;;;32.60;19.55;;;1.10;99.90;;;;;;5293575;28;20023;-78
2022/03/14 06:46:08;;;;;;;30.63;18.08;;;0.90;99.90;;;;;;5292271;28;20054;-78
2022/03/14 06:48:40;;;;;;;36.10;19.35;;;1.40;99.90;;;;;;5292323;28;20015;-77
2022/03/14 06:51:11;;;;;;;34.95;18.92;;;1.40;99.90;;;;;;5293528;28;20035;-77
2022/03/14 06:53:42;;;;;;;35.25;18.80;;;1.40;99.90;;;;;;5293474;28;20416;-78
2022/03/14 06:56:15;;;;;;;31.63;17.25;;;1.50;99.90;;;;;;5293249;27;20374;-76
2022/03/14 06:58:46;;;;;;;33.30;18.55;;;1.90;99.90;;;;;;5293219;28;20063;-76
2022/03/14 07:01:18;;;;;;;30.13;18.13;;;2.10;99.90;;;;;;5293331;28;20415;-78
2022/03/14 07:03:49;;;;;;;29.15;17.73;;;2.30;99.90;;;;;;5291943;28;20490;-76
2022/03/14 07:06:20;;;;;;;28.63;16.65;;;2.80;99.90;;;;;;5292674;28;20051;-84
2022/03/14 07:08:51;;;;;;;23.92;14.63;;;3.40;99.90;;;;;;5293136;28;20027;-76
2022/03/14 07:11:22;;;;;;;35.15;18.00;;;4.00;99.90;;;;;;5293254;28;20471;-77
2022/03/14 07:13:52;;;;;;;60.28;30.50;;;4.20;99.90;;;;;;5293085;28;20089;-76
2022/03/14 07:16:23;;;;;;;46.67;24.42;;;4.00;99.90;;;;;;5292866;28;20027;-76
2022/03/14 07:18:54;;;;;;;30.23;17.70;;;3.90;99.90;;;;;;5292777;27;20482;-76
2022/03/14 07:21:28;;;;;;;25.73;13.60;;;4.00;99.90;;;;;;5292908;28;20391;-76
2022/03/14 07:23:59;;;;;;;22.65;12.18;;;3.80;99.90;;;;;;5292062;28;20032;-76
2022/03/14 07:26:30;;;;;;;15.93;8.75;;;3.90;99.90;;;;;;5292822;28;20428;-75
2022/03/14 07:29:01;;;;;;;15.75;8.50;;;3.80;99.90;;;;;;5292684;28;20022;-75
2022/03/14 07:31:32;;;;;;;16.55;10.35;;;3.70;99.90;;;;;;5292852;28;20115;-76
2022/03/14 07:34:03;;;;;;;17.45;10.15;;;3.90;99.90;;;;;;5292702;27;20110;-77
2022/03/14 07:36:35;;;;;;;23.95;14.27;;;3.80;99.90;;;;;;5292337;27;20126;-76
2022/03/14 07:39:06;;;;;;;17.23;9.38;;;3.70;99.90;;;;;;5292473;28;20019;-76
2022/03/14 07:41:37;;;;;;;18.75;9.00;;;3.70;99.90;;;;;;5292558;28;20027;-76
2022/03/14 07:44:08;;;;;;;13.07;7.70;;;3.70;99.90;;;;;;5292351;28;20532;-75
2022/03/14 07:46:39;;;;;;;13.50;7.40;;;3.10;99.90;;;;;;5292415;28;20538;-76
2022/03/14 07:49:10;;;;;;;15.05;7.65;;;3.10;99.90;;;;;;5292465;28;20103;-76
2022/03/14 07:51:41;;;;;;;17.40;8.77;;;3.20;99.90;;;;;;5292265;28;20049;-75
2022/03/14 07:54:12;;;;;;;12.35;7.15;;;3.20;99.90;;;;;;5292335;28;20375;-76
2022/03/14 07:56:43;;;;;;;12.50;7.63;;;3.00;99.90;;;;;;5290825;28;20024;-76
2022/03/14 07:59:14;;;;;;;13.85;7.20;;;3.00;99.90;;;;;;5292180;28;20024;-77
2022/03/14 08:01:45;;;;;;;13.07;6.95;;;2.90;99.90;;;;;;5292090;28;20372;-76
2022/03/14 08:04:15;;;;;;;11.40;6.68;;;2.70;99.90;;;;;;5292053;28;20031;-76
2022/03/14 08:06:46;;;;;;;14.93;7.97;;;2.50;99.90;;;;;;5290391;28;20055;-75
2022/03/14 08:09:21;;;;;;;12.32;7.60;;;2.50;99.90;;;;;;5292055;28;20459;-76
2022/03/14 08:11:51;;;;;;;13.50;8.68;;;2.50;99.90;;;;;;5291986;28;20054;-76
2022/03/14 08:14:22;;;;;;;17.02;9.50;;;2.60;99.90;;;;;;5291927;28;20063;-77
2022/03/14 08:16:53;;;;;;;15.70;8.70;;;2.60;99.90;;;;;;5291624;28;20036;-76
2022/03/14 08:19:24;;;;;;;17.83;10.30;;;2.60;99.90;;;;;;5290486;28;20023;-76
2022/03/14 08:21:57;;;;;;;16.13;8.90;;;3.00;99.90;;;;;;5291759;27;20043;-76
2022/03/14 08:24:28;;;;;;;15.32;8.75;;;3.10;99.90;;;;;;5291733;28;20011;-76
2022/03/14 08:27:01;;;;;;;13.55;7.70;;;3.40;99.90;;;;;;5291540;28;20080;-76
2022/03/14 08:29:32;;;;;;;12.85;7.85;;;3.50;99.90;;;;;;5291581;28;20032;-78
2022/03/14 08:32:03;;;;;;;11.25;6.70;;;4.00;99.90;;;;;;5291509;28;20023;-76
2022/03/14 08:34:34;;;;;;;98.28;31.48;;;3.50;99.90;;;;;;5291388;28;20028;-76
2022/03/14 08:37:05;;;;;;;9.30;6.40;;;4.20;99.90;;;;;;5290006;28;20036;-75
2022/03/14 08:39:36;;;;;;;13.43;8.32;;;4.60;99.90;;;;;;5291359;28;20068;-76
2022/03/14 08:42:09;;;;;;;16.13;8.57;;;4.60;99.90;;;;;;5291354;28;20035;-79
2022/03/14 08:44:40;;;;;;;9.80;4.50;;;4.60;99.90;;;;;;5291104;28;20104;-76
2022/03/14 08:47:11;;;;;;;10.98;7.57;;;4.30;99.90;;;;;;5291298;28;20019;-76
2022/03/14 08:49:42;;;;;;;12.77;8.18;;;4.90;99.90;;;;;;5291153;27;20026;-76
2022/03/14 08:52:13;;;;;;;11.52;6.53;;;4.90;99.90;;;;;;5291127;28;20023;-76
2022/03/14 08:54:43;;;;;;;8.15;5.35;;;4.70;99.90;;;;;;5290972;28;20015;-75
2022/03/14 08:57:16;;;;;;;10.45;6.82;;;4.50;99.90;;;;;;5290783;28;20119;-76
2022/03/14 08:59:47;;;;;;;12.30;6.90;;;4.30;99.90;;;;;;5290799;28;20102;-76
2022/03/14 09:02:18;;;;;;;11.75;7.88;;;4.40;99.90;;;;;;5290911;28;20492;-77
2022/03/14 09:04:49;;;;;;;15.27;8.13;;;4.40;99.90;;;;;;5290711;28;20046;-76
2022/03/14 09:07:24;;;;;;;12.07;7.57;;;4.70;99.90;;;;;;5290662;27;20052;-78
2022/03/14 09:10:01;;;;;;;13.52;7.75;;;4.50;99.90;;;;;;5290749;28;20031;-76
2022/03/14 09:12:33;;;;;;;12.80;8.00;;;4.50;99.90;;;;;;5290750;28;20088;-77
2022/03/14 09:15:04;;;;;;;15.25;8.63;;;4.50;99.90;;;;;;5290676;28;20015;-76
2022/03/14 09:17:51;;;;;;;15.05;8.55;;;4.60;99.90;;;;;;5290398;28;20088;-76
2022/03/14 09:20:23;;;;;;;15.10;8.77;;;4.60;99.90;;;;;;5289380;28;20037;-76
2022/03/14 09:22:54;;;;;;;14.02;8.82;;;4.50;99.90;;;;;;5290457;28;20517;-75
2022/03/14 09:25:25;;;;;;;13.85;8.02;;;4.60;99.90;;;;;;5290440;28;20019;-76
2022/03/14 09:27:56;;;;;;;14.93;7.47;;;4.80;99.90;;;;;;5290423;28;20103;-76
2022/03/14 09:30:27;;;;;;;13.88;8.40;;;5.30;99.90;;;;;;5290364;28;20168;-75
2022/03/14 09:32:58;;;;;;;13.95;7.38;;;5.70;99.90;;;;;;5290370;28;20020;-76
2022/03/14 09:35:30;;;;;;;13.93;7.43;;;5.30;99.90;;;;;;5288803;28;20173;-76
2022/03/14 09:38:00;;;;;;;12.95;7.95;;;5.40;99.90;;;;;;5288855;28;20032;-76
2022/03/14 09:40:32;;;;;;;14.77;8.20;;;5.60;99.90;;;;;;5290161;28;20028;-76
2022/03/14 09:43:03;;;;;;;16.17;7.85;;;6.00;99.90;;;;;;5290223;28;20110;-75
2022/03/14 09:45:36;;;;;;;15.20;7.75;;;5.80;99.90;;;;;;5289974;28;20028;-76
2022/03/14 09:48:11;;;;;;;11.05;6.53;;;6.10;99.90;;;;;;5289804;28;20037;-75
2022/03/14 09:50:44;;;;;;;12.38;7.05;;;5.70;99.90;;;;;;5290219;28;20027;-76
2022/03/14 09:53:18;;;;;;;12.15;7.25;;;5.60;99.90;;;;;;5290008;28;20086;-81
2022/03/14 09:55:49;;;;;;;12.10;7.40;;;5.60;99.90;;;;;;5289828;28;20445;-75
2022/03/14 09:58:21;;;;;;;11.05;6.28;;;5.80;99.90;;;;;;5290397;28;20024;-75
2022/03/14 10:00:53;;;;;;;12.02;7.18;;;6.30;99.90;;;;;;5289846;28;20020;-75
2022/03/14 10:03:24;;;;;;;9.80;6.60;;;6.20;99.90;;;;;;5288808;28;20024;-75
2022/03/14 10:05:55;;;;;;;13.60;7.68;;;5.80;99.90;;;;;;5289424;28;20376;-75
2022/03/14 10:08:27;;;;;;;12.85;7.22;;;6.50;99.90;;;;;;5289772;28;20055;-75
2022/03/14 10:10:58;;;;;;;12.25;6.63;;;6.20;99.90;;;;;;5289887;28;20020;-75
2022/03/14 10:13:29;;;;;;;12.60;6.70;;;6.10;99.90;;;;;;5289890;28;20028;-75
2022/03/14 10:16:00;;;;;;;12.40;6.82;;;6.30;99.90;;;;;;5289699;28;20023;-75
2022/03/14 10:19:10;;;;;;;9.55;6.25;;;5.90;99.90;;;;;;5289743;28;20027;-75
2022/03/14 10:21:45;;;;;;;13.65;6.45;;;5.60;99.90;;;;;;5266474;28;20032;-75
2022/03/14 10:24:21;;;;;;;12.07;6.25;;;5.30;99.90;;;;;;5286422;28;20416;-76
2022/03/14 10:26:54;;;;;;;11.57;6.55;;;5.20;99.90;;;;;;5289771;28;20012;-75
2022/03/14 10:29:25;;;;;;;16.45;7.93;;;5.50;99.90;;;;;;5289642;28;20042;-75
2022/03/14 10:31:56;;;;;;;12.32;7.05;;;5.30;99.90;;;;;;5289776;28;20024;-75
2022/03/14 10:34:27;;;;;;;14.05;7.07;;;5.10;99.90;;;;;;5289507;28;20030;-75
2022/03/14 10:36:58;;;;;;;12.00;6.80;;;5.10;99.90;;;;;;5289285;28;20042;-76
2022/03/14 10:39:32;;;;;;;12.23;6.93;;;5.30;99.90;;;;;;5289558;28;20038;-75
2022/03/14 10:42:10;;;;;;;8.65;6.00;;;5.20;99.90;;;;;;5289586;28;20528;-75
2022/03/14 10:44:42;;;;;;;13.20;6.75;;;5.90;99.90;;;;;;5289439;28;20059;-75
2022/03/14 10:47:13;;;;;;;10.25;6.25;;;5.80;99.90;;;;;;5289500;28;20027;-75
2022/03/14 10:49:44;;;;;;;13.18;5.88;;;5.20;99.90;;;;;;5289507;28;20027;-79
2022/03/14 10:52:20;;;;;;;8.77;5.22;;;5.30;99.90;;;;;;5289411;28;20378;-75
2022/03/14 10:54:51;;;;;;;12.38;6.53;;;5.30;99.90;;;;;;5289391;28;20030;-77
2022/03/14 10:57:25;;;;;;;9.15;6.10;;;5.50;99.90;;;;;;5289154;28;20036;-77
2022/03/14 10:59:57;;;;;;;10.68;6.53;;;5.50;99.90;;;;;;5291432;28;20012;-75
2022/03/14 11:02:28;;;;;;;11.27;7.10;;;6.60;99.90;;;;;;5293339;28;20020;-75
2022/03/14 11:05:00;;;;;;;10.50;7.03;;;6.20;99.90;;;;;;5293059;28;20501;-75
2022/03/14 11:07:32;;;;;;;10.02;6.63;;;6.10;99.90;;;;;;5292954;28;20112;-75
2022/03/14 11:10:06;;;;;;;11.10;5.50;;;5.90;99.90;;;;;;5291834;28;20030;-75
2022/03/14 11:12:37;;;;;;;10.55;6.03;;;5.70;99.90;;;;;;5293103;28;20080;-75
2022/03/14 11:15:09;;;;;;;12.00;6.03;;;5.40;99.90;;;;;;5292920;28;20475;-76
2022/03/14 11:17:40;;;;;;;6.70;4.38;;;5.60;99.90;;;;;;5292782;28;20034;-76
2022/03/14 11:20:11;;;;;;;8.90;4.80;;;6.10;99.90;;;;;;5292963;28;20019;-75
2022/03/14 11:22:43;;;;;;;7.53;4.57;;;6.90;99.90;;;;;;5291591;28;20032;-75
2022/03/14 11:25:16;;;;;;;7.68;4.47;;;6.60;99.90;;;;;;5292795;28;20016;-82
2022/03/14 11:27:49;;;;;;;8.18;4.93;;;7.00;99.90;;;;;;5292608;28;20028;-75
2022/03/14 11:30:20;;;;;;;7.88;5.10;;;7.50;99.90;;;;;;5292717;28;20076;-75
2022/03/14 11:32:52;;;;;;;7.10;3.92;;;7.10;99.90;;;;;;5292594;28;20474;-76
2022/03/14 11:35:23;;;;;;;7.47;4.25;;;7.60;99.90;;;;;;5292414;28;20055;-76
2022/03/14 11:37:55;;;;;;;6.85;3.47;;;7.30;99.90;;;;;;5292453;28;20040;-75
2022/03/14 11:40:27;;;;;;;6.63;3.85;;;6.40;99.90;;;;;;5292526;28;20020;-75
2022/03/14 11:42:58;;;;;;;7.72;4.03;;;5.80;99.90;;;;;;5292517;28;20032;-75
2022/03/14 11:45:30;;;;;;;5.65;3.13;;;6.10;99.90;;;;;;5292498;28;20514;-74
2022/03/14 11:48:05;;;;;;;7.68;3.70;;;6.90;99.90;;;;;;5292352;28;20027;-76
2022/03/14 11:50:48;;;;;;;7.57;3.97;;;7.40;99.90;;;;;;5292319;28;20024;-75
2022/03/14 11:53:21;;;;;;;7.50;4.35;;;8.30;99.90;;;;;;5292268;28;20023;-75
2022/03/14 11:56:12;;;;;;;6.82;4.00;;;8.30;99.90;;;;;;5292060;28;20024;-75
2022/03/14 11:58:53;;;;;;;6.45;3.80;;;6.80;99.90;;;;;;5291905;28;20494;-75
2022/03/14 12:01:27;;;;;;;4.68;2.80;;;6.20;99.90;;;;;;5292122;27;20019;-75
2022/03/14 12:04:00;;;;;;;8.88;3.03;;;5.80;99.90;;;;;;5292095;28;20039;-75
2022/03/14 12:06:46;;;;;;;5.00;2.63;;;5.80;99.90;;;;;;5290535;28;20054;-74
2022/03/14 12:09:26;;;;;;;5.32;2.55;;;5.50;99.90;;;;;;5292110;27;20054;-75
2022/03/14 12:11:59;;;;;;;5.30;3.20;;;5.30;99.90;;;;;;5291771;28;20020;-75
2022/03/14 12:14:47;;;;;;;7.32;3.25;;;5.30;99.90;;;;;;5291852;28;20027;-74
2022/03/14 12:17:18;;;;;;;9.77;3.88;;;5.40;99.90;;;;;;5291664;28;20429;-80
2022/03/14 12:20:00;;;;;;;11.70;5.00;;;5.40;99.90;;;;;;5291830;28;20035;-75
2022/03/14 12:22:32;;;;;;;6.90;3.33;;;5.40;99.90;;;;;;5291812;28;20055;-75
2022/03/14 12:25:05;;;;;;;4.97;3.25;;;5.30;99.90;;;;;;5291699;28;20039;-81
2022/03/14 12:27:38;;;;;;;7.32;3.53;;;5.60;99.90;;;;;;5291691;28;20089;-75
2022/03/14 12:30:24;;;;;;;6.80;3.10;;;5.90;99.90;;;;;;5291540;28;20423;-81
2022/03/14 12:32:55;;;;;;;4.47;2.88;;;5.70;99.90;;;;;;5291526;28;20059;-80
2022/03/14 12:35:33;;;;;;;5.50;3.60;;;5.20;99.90;;;;;;5291018;28;20110;-80
2022/03/14 12:38:14;;;;;;;6.00;3.42;;;5.00;99.90;;;;;;5291311;28;20031;-80
2022/03/14 12:40:46;;;;;;;5.32;3.05;;;4.90;99.90;;;;;;5290143;28;20110;-77
2022/03/14 12:43:30;;;;;;;4.90;2.63;;;5.10;99.90;;;;;;5289950;28;20036;-74
2022/03/14 12:46:02;;;;;;;7.43;2.60;;;4.80;99.90;;;;;;5291252;28;20019;-75
2022/03/14 12:48:38;;;;;;;7.20;2.92;;;4.80;99.90;;;;;;5291151;28;20023;-75
2022/03/14 12:51:09;;;;;;;5.28;3.38;;;4.90;99.90;;;;;;5291267;28;20016;-75
2022/03/14 12:53:43;;;;;;;5.95;2.40;;;5.00;99.90;;;;;;5291097;28;20024;-75
2022/03/14 12:56:20;;;;;;;7.18;3.30;;;4.50;99.90;;;;;;5290980;28;20051;-76
2022/03/14 12:58:55;;;;;;;6.43;2.92;;;4.30;99.90;;;;;;5290939;28;20034;-75
2022/03/14 13:01:28;;;;;;;6.63;3.22;;;4.20;99.90;;;;;;5290909;28;20016;-75